createdAt,value
2022-08-05T00:00:12.703Z,76.53
2022-08-05T00:02:43.890Z,77.03
2022-08-05T00:06:01.782Z,77.06
2022-08-05T00:08:05.039Z,77.11
2022-08-05T00:10:31.697Z,77.60
2022-08-05T00:12:58.754Z,77.85
2022-08-05T00:15:56.413Z,78.22
2022-08-05T00:18:21.693Z,78.89
2022-08-05T00:20:50.332Z,79.56
2022-08-05T00:23:17.219Z,79.87
2022-08-05T00:25:57.417Z,80.08
2022-08-05T00:28:29.416Z,80.99
2022-08-05T00:30:56.486Z,81.48
2022-08-05T00:34:55.706Z,82.54
2022-08-05T00:37:11.459Z,82.81
2022-08-05T00:39:02.565Z,85.42
2022-08-05T00:41:55.269Z,86.39
2022-08-05T00:44:20.864Z,90.20
2022-08-05T00:46:54.275Z,91.80
2022-08-05T00:49:28.220Z,92.18
2022-08-05T00:51:59.392Z,93.26
2022-08-05T00:54:28.154Z,91.80
2022-08-05T00:56:56.849Z,94.27
2022-08-05T00:59:23.724Z,94.61
2022-08-05T01:01:51.052Z,95.64
2022-08-05T01:04:20.357Z,96.62
2022-08-05T01:06:53.637Z,96.37
2022-08-05T01:09:21.943Z,96.15
2022-08-05T01:11:51.773Z,97.34
2022-08-05T01:14:27.819Z,100.00
2022-08-05T01:17:07.036Z,100.00
2022-08-05T01:20:01.915Z,100.00
2022-08-05T01:22:57.213Z,100.00
2022-08-05T01:25:57.770Z,100.00
2022-08-05T01:28:36.216Z,100.00
2022-08-05T01:31:09.627Z,100.00
2022-08-05T01:33:49.325Z,100.00
2022-08-05T01:36:20.984Z,100.00
2022-08-05T01:38:49.905Z,100.00
2022-08-05T01:41:18.565Z,100.00
2022-08-05T01:43:50.067Z,100.00
2022-08-05T01:46:43.012Z,100.00
2022-08-05T01:49:22.700Z,100.00
2022-08-05T01:51:53.911Z,100.00
2022-08-05T01:54:25.695Z,100.00
2022-08-05T01:58:12.460Z,100.00
2022-08-05T01:59:41.582Z,100.00
2022-08-05T02:02:14.357Z,100.00
2022-08-05T02:04:43.163Z,100.00
2022-08-05T02:07:21.597Z,100.00
2022-08-05T02:09:48.854Z,100.00
2022-08-05T02:12:22.673Z,100.00
2022-08-05T02:15:14.293Z,100.00
2022-08-05T02:18:31.991Z,100.00
2022-08-05T02:20:46.975Z,100.00
2022-08-05T02:23:14.060Z,100.00
2022-08-05T02:25:49.464Z,100.00
2022-08-05T02:28:31.243Z,100.00
2022-08-05T02:31:04.150Z,100.00
2022-08-05T02:33:35.862Z,100.00
2022-08-05T02:36:09.436Z,100.00
2022-08-05T02:38:36.388Z,100.00
2022-08-05T02:41:14.508Z,100.00
2022-08-05T02:44:02.837Z,100.00
2022-08-05T02:46:32.109Z,100.00
2022-08-05T02:48:59.535Z,100.00
2022-08-05T02:51:28.279Z,100.00
2022-08-05T02:54:35.794Z,100.00
2022-08-05T02:57:00.949Z,100.00
2022-08-05T02:59:28.242Z,100.00
2022-08-05T03:02:00.649Z,100.00
2022-08-05T03:04:28.018Z,100.00
2022-08-05T03:06:59.538Z,100.00
2022-08-05T03:09:38.196Z,100.00
2022-08-05T03:12:10.114Z,100.00
2022-08-05T03:14:45.954Z,100.00
2022-08-05T03:17:12.792Z,100.00
2022-08-05T03:19:39.342Z,100.00
2022-08-05T03:22:16.596Z,100.00
2022-08-05T03:24:51.092Z,100.00
2022-08-05T03:27:19.823Z,100.00
2022-08-05T03:30:07.317Z,100.00
2022-08-05T03:32:33.825Z,100.00
2022-08-05T03:35:01.483Z,100.00
2022-08-05T03:37:31.405Z,100.00
2022-08-05T03:40:12.045Z,100.00
2022-08-05T03:42:41.818Z,100.00
2022-08-05T03:45:22.177Z,100.00
2022-08-05T03:47:49.888Z,100.00
2022-08-05T03:50:16.406Z,100.00
2022-08-05T03:54:58.756Z,100.00
2022-08-05T03:56:11.591Z,100.00
2022-08-05T03:58:43.202Z,100.00
2022-08-05T04:01:13.451Z,100.00
2022-08-05T04:04:09.005Z,100.00
2022-08-05T04:06:29.214Z,100.00
2022-08-05T04:08:56.733Z,100.00
2022-08-05T04:11:23.746Z,100.00
2022-08-05T04:14:10.472Z,100.00
2022-08-05T04:16:44.767Z,100.00
2022-08-05T04:19:12.804Z,100.00
2022-08-05T04:22:10.038Z,100.00
2022-08-05T04:24:26.225Z,100.00
2022-08-05T04:26:54.256Z,100.00
2022-08-05T04:29:20.922Z,100.00
2022-08-05T04:31:48.432Z,100.00
2022-08-05T04:34:31.294Z,100.00
2022-08-05T04:37:01.092Z,100.00
2022-08-05T04:39:30.339Z,100.00
2022-08-05T04:41:56.863Z,100.00
2022-08-05T04:44:29.426Z,100.00
2022-08-05T04:46:58.771Z,100.00
2022-08-05T04:49:38.755Z,100.00
2022-08-05T04:52:12.553Z,100.00
2022-08-05T04:54:39.106Z,100.00
2022-08-05T04:57:05.694Z,100.00
2022-08-05T04:59:38.838Z,100.00
2022-08-05T05:02:41.598Z,100.00
2022-08-05T05:04:53.078Z,100.00
2022-08-05T05:07:29.407Z,100.00
2022-08-05T05:09:58.650Z,100.00
2022-08-05T05:12:27.559Z,100.00
2022-08-05T05:14:54.335Z,100.00
2022-08-05T05:17:24.363Z,100.00
2022-08-05T05:19:57.710Z,100.00
2022-08-05T05:22:26.091Z,100.00
2022-08-05T05:24:58.513Z,100.00
2022-08-05T05:27:45.716Z,100.00
2022-08-05T05:30:29.384Z,100.00
2022-08-05T05:33:00.658Z,100.00
2022-08-05T05:35:29.266Z,100.00
2022-08-05T05:38:03.069Z,100.00
2022-08-05T05:40:32.462Z,100.00
2022-08-05T05:43:00.865Z,100.00
2022-08-05T05:45:28.723Z,100.00
2022-08-05T05:48:05.308Z,100.00
2022-08-05T05:50:35.631Z,100.00
2022-08-05T05:53:22.240Z,100.00
2022-08-05T05:55:52.495Z,100.00
2022-08-05T05:58:32.002Z,100.00
2022-08-05T06:01:04.921Z,100.00
2022-08-05T06:04:00.732Z,100.00
2022-08-05T06:06:28.148Z,100.00
2022-08-05T06:09:00.111Z,100.00
2022-08-05T06:11:26.663Z,100.00
2022-08-05T06:13:55.782Z,100.00
2022-08-05T06:16:29.147Z,100.00
2022-08-05T06:19:00.239Z,100.00
2022-08-05T06:21:37.037Z,100.00
2022-08-05T06:24:11.996Z,100.00
2022-08-05T06:26:52.367Z,100.00
2022-08-05T06:29:25.170Z,100.00
2022-08-05T06:32:21.106Z,100.00
2022-08-05T06:34:53.579Z,100.00
2022-08-05T06:37:56.656Z,100.00
2022-08-05T06:40:09.929Z,100.00
2022-08-05T06:42:37.097Z,100.00
2022-08-05T06:45:08.593Z,100.00
2022-08-05T06:48:36.497Z,100.00
2022-08-05T06:50:22.442Z,100.00
2022-08-05T06:52:58.762Z,100.00
2022-08-05T06:55:30.162Z,100.00
2022-08-05T06:58:20.136Z,100.00
2022-08-05T07:00:49.385Z,100.00
2022-08-05T07:03:17.117Z,100.00
2022-08-05T07:05:44.082Z,100.00
2022-08-05T07:08:13.181Z,100.00
2022-08-05T07:10:52.355Z,100.00
2022-08-05T07:13:57.514Z,100.00
2022-08-05T07:17:59.722Z,100.00
2022-08-05T07:22:17.084Z,100.00
2022-08-05T07:24:43.995Z,100.00
2022-08-05T07:27:20.142Z,100.00
2022-08-05T07:30:29.905Z,100.00
2022-08-05T07:32:38.513Z,100.00
2022-08-05T07:36:02.655Z,100.00
2022-08-05T07:37:58.674Z,100.00
2022-08-05T07:40:31.447Z,100.00
2022-08-05T07:42:59.676Z,100.00
2022-08-05T07:45:58.019Z,100.00
2022-08-05T07:49:00.589Z,100.00
2022-08-05T07:51:05.570Z,100.00
2022-08-05T07:53:50.598Z,100.00
2022-08-05T07:57:00.202Z,100.00
2022-08-05T07:59:04.176Z,100.00
2022-08-05T08:01:35.142Z,100.00
2022-08-05T08:04:08.048Z,100.00
2022-08-05T08:06:34.595Z,100.00
2022-08-05T08:09:01.131Z,100.00
2022-08-05T08:11:47.869Z,100.00
2022-08-05T08:14:18.215Z,100.00
2022-08-05T08:16:50.954Z,100.00
2022-08-05T08:20:10.277Z,100.00
2022-08-05T08:22:05.613Z,100.00
2022-08-05T08:24:51.420Z,100.00
2022-08-05T08:27:18.755Z,100.00
2022-08-05T08:30:05.640Z,100.00
2022-08-05T08:32:34.465Z,100.00
2022-08-05T08:35:07.445Z,100.00
2022-08-05T08:37:40.304Z,100.00
2022-08-05T08:40:12.040Z,100.00
2022-08-05T08:42:50.914Z,100.00
2022-08-05T08:45:27.130Z,100.00
2022-08-05T08:48:12.695Z,100.00
2022-08-05T08:51:03.225Z,100.00
2022-08-05T08:53:36.622Z,100.00
2022-08-05T08:56:05.976Z,100.00
2022-08-05T08:58:43.949Z,100.00
2022-08-05T09:01:16.826Z,100.00
2022-08-05T09:03:54.218Z,100.00
2022-08-05T09:06:24.293Z,100.00
2022-08-05T09:08:55.505Z,100.00
2022-08-05T09:11:52.076Z,100.00
2022-08-05T09:14:54.555Z,100.00
2022-08-05T09:16:55.339Z,100.00
2022-08-05T09:19:27.961Z,100.00
2022-08-05T09:22:22.474Z,100.00
2022-08-05T09:25:23.814Z,100.00
2022-08-05T09:28:03.847Z,100.00
2022-08-05T09:30:34.576Z,100.00
2022-08-05T09:33:01.906Z,100.00
2022-08-05T09:35:29.335Z,100.00
2022-08-05T09:38:17.572Z,100.00
2022-08-05T09:40:53.698Z,100.00
2022-08-05T09:43:40.870Z,100.00
2022-08-05T09:46:28.022Z,100.00
2022-08-05T09:49:08.283Z,100.00
2022-08-05T09:51:42.775Z,100.00
2022-08-05T09:54:10.160Z,100.00
2022-08-05T09:56:38.121Z,100.00
2022-08-05T09:59:09.759Z,100.00
2022-08-05T10:01:45.638Z,100.00
2022-08-05T10:04:16.184Z,100.00
2022-08-05T10:06:59.232Z,100.00
2022-08-05T10:09:29.340Z,100.00
2022-08-05T10:12:28.328Z,100.00
2022-08-05T10:15:13.569Z,100.00
2022-08-05T10:17:47.325Z,100.00
2022-08-05T10:20:23.565Z,100.00
2022-08-05T10:22:51.530Z,100.00
2022-08-05T10:25:19.134Z,100.00
2022-08-05T10:28:16.645Z,100.00
2022-08-05T10:31:20.428Z,100.00
2022-08-05T10:33:28.983Z,100.00
2022-08-05T10:35:59.279Z,100.00
2022-08-05T10:38:28.177Z,100.00
2022-08-05T10:41:13.728Z,100.00
2022-08-05T10:43:55.025Z,100.00
2022-08-05T10:46:23.968Z,100.00
2022-08-05T10:49:06.429Z,100.00
2022-08-05T10:51:53.066Z,100.00
2022-08-05T10:54:46.873Z,100.00
2022-08-05T10:57:26.417Z,100.00
2022-08-05T11:00:14.768Z,100.00
2022-08-05T11:03:25.225Z,100.00
2022-08-05T11:06:03.848Z,100.00
2022-08-05T11:08:39.285Z,100.00
2022-08-05T11:11:44.821Z,100.00
2022-08-05T11:15:11.412Z,100.00
2022-08-05T11:17:57.056Z,100.00
2022-08-05T11:20:39.005Z,100.00
2022-08-05T11:24:02.666Z,100.00
2022-08-05T11:26:28.484Z,100.00
2022-08-05T11:29:12.605Z,100.00
2022-08-05T11:31:54.399Z,100.00
2022-08-05T11:34:51.826Z,100.00
2022-08-05T11:38:37.004Z,100.00
2022-08-05T11:41:12.915Z,100.00
2022-08-05T11:44:04.896Z,100.00
2022-08-05T11:46:35.237Z,100.00
2022-08-05T11:49:03.246Z,100.00
2022-08-05T11:51:44.830Z,100.00
2022-08-05T11:54:33.877Z,100.00
2022-08-05T11:57:08.831Z,100.00
2022-08-05T11:59:49.726Z,100.00
2022-08-05T12:02:30.286Z,100.00
2022-08-05T12:05:00.382Z,100.00
2022-08-05T12:08:08.807Z,100.00
2022-08-05T12:10:45.074Z,100.00
2022-08-05T12:13:15.858Z,100.00
2022-08-05T12:15:51.408Z,100.00
2022-08-05T12:18:33.340Z,100.00
2022-08-05T12:21:10.390Z,100.00
2022-08-05T12:23:36.876Z,100.00
2022-08-05T12:26:09.802Z,100.00
2022-08-05T12:28:37.798Z,100.00
2022-08-05T12:31:05.435Z,100.00
2022-08-05T12:33:36.509Z,100.00
2022-08-05T12:36:07.223Z,100.00
2022-08-05T12:38:37.891Z,100.00
2022-08-05T12:41:13.345Z,100.00
2022-08-05T12:44:11.717Z,100.00
2022-08-05T12:46:45.613Z,100.00
2022-08-05T12:49:14.635Z,100.00
2022-08-05T12:52:13.620Z,100.00
2022-08-05T12:54:46.145Z,100.00
2022-08-05T12:57:16.421Z,100.00
2022-08-05T13:01:56.981Z,100.00
2022-08-05T13:02:37.422Z,100.00
2022-08-05T13:05:07.233Z,100.00
2022-08-05T13:07:59.382Z,100.00
2022-08-05T13:10:20.673Z,100.00
2022-08-05T13:12:57.213Z,100.00
2022-08-05T13:15:36.030Z,100.00
2022-08-05T13:18:19.732Z,100.00
2022-08-05T13:20:47.237Z,100.00
2022-08-05T13:23:16.304Z,100.00
2022-08-05T13:25:58.694Z,100.00
2022-08-05T13:28:27.583Z,100.00
2022-08-05T13:30:54.148Z,100.00
2022-08-05T13:34:21.231Z,100.00
2022-08-05T13:36:09.142Z,100.00
2022-08-05T13:38:42.474Z,100.00
2022-08-05T13:41:10.933Z,100.00
2022-08-05T13:43:44.915Z,100.00
2022-08-05T13:46:50.690Z,100.00
2022-08-05T13:49:10.131Z,100.00
2022-08-05T13:51:40.986Z,100.00
2022-08-05T13:54:13.440Z,100.00
2022-08-05T13:56:45.389Z,98.88
2022-08-05T13:59:19.820Z,100.00
2022-08-05T14:01:57.804Z,100.00
2022-08-05T14:04:43.837Z,100.00
2022-08-05T14:07:55.363Z,100.00
2022-08-05T14:10:10.218Z,100.00
2022-08-05T14:12:36.818Z,100.00
2022-08-05T14:15:05.900Z,100.00
2022-08-05T14:17:50.894Z,100.00
2022-08-05T14:20:21.500Z,100.00
2022-08-05T14:22:54.361Z,100.00
2022-08-05T14:25:22.470Z,100.00
2022-08-05T14:27:54.454Z,100.00
2022-08-05T14:30:21.417Z,100.00
2022-08-05T14:32:48.834Z,91.91
2022-08-05T14:35:16.224Z,87.60
2022-08-05T14:37:51.012Z,86.51
2022-08-05T14:40:21.666Z,91.17
2022-08-05T14:42:51.068Z,97.10
2022-08-05T14:45:18.519Z,100.00
2022-08-05T14:48:03.976Z,96.49
2022-08-05T14:50:31.695Z,85.18
2022-08-05T14:55:38.638Z,92.23
2022-08-05T14:58:11.147Z,79.82
2022-08-05T15:00:39.551Z,85.52
2022-08-05T15:03:25.475Z,87.83
2022-08-05T15:06:12.982Z,91.18
2022-08-05T15:09:01.484Z,87.77
2022-08-05T15:11:52.388Z,85.03
2022-08-05T15:14:11.997Z,90.11
2022-08-05T15:16:58.482Z,90.62
2022-08-05T15:19:26.123Z,93.82
2022-08-05T15:21:52.731Z,94.21
2022-08-05T15:24:19.287Z,86.98
2022-08-05T15:26:46.736Z,96.24
2022-08-05T15:29:15.273Z,87.48
2022-08-05T15:31:41.833Z,76.48
2022-08-05T15:34:31.927Z,73.87
2022-08-05T15:36:54.805Z,74.29
2022-08-05T15:41:01.804Z,75.36
2022-08-05T15:42:53.591Z,71.91
2022-08-05T15:44:55.018Z,72.69
2022-08-05T15:47:22.423Z,74.54
2022-08-05T15:49:58.817Z,73.47
2022-08-05T15:52:52.339Z,80.34
2022-08-05T15:55:16.837Z,75.34
2022-08-05T15:57:43.419Z,77.59
2022-08-05T16:00:12.250Z,89.42
2022-08-05T16:02:43.333Z,81.82
2022-08-05T16:05:11.267Z,70.45
2022-08-05T16:07:38.146Z,68.60
2022-08-05T16:10:12.882Z,67.69
2022-08-05T16:12:39.803Z,72.92
2022-08-05T16:15:06.795Z,70.32
2022-08-05T16:17:36.040Z,54.17
2022-08-05T16:20:04.715Z,50.46
2022-08-05T16:22:34.707Z,47.49
2022-08-05T16:25:08.163Z,65.86
2022-08-05T16:27:59.969Z,62.14
2022-08-05T16:30:26.253Z,64.86
2022-08-05T16:32:55.105Z,51.11
2022-08-05T16:35:27.771Z,50.71
2022-08-05T16:38:01.854Z,53.57
2022-08-05T16:40:42.114Z,46.76
2022-08-05T16:43:16.463Z,51.29
2022-08-05T16:46:03.734Z,47.64
2022-08-05T16:48:33.601Z,46.81
2022-08-05T16:51:01.996Z,52.65
2022-08-05T16:53:31.848Z,56.47
2022-08-05T16:55:59.425Z,51.99
2022-08-05T16:58:26.068Z,47.88
2022-08-05T17:00:52.984Z,45.69
2022-08-05T17:03:19.957Z,49.26
2022-08-05T17:05:53.199Z,49.27
2022-08-05T17:08:33.473Z,55.49
2022-08-05T17:11:03.769Z,53.31
2022-08-05T17:13:37.803Z,52.80
2022-08-05T17:16:28.120Z,51.95
2022-08-05T17:18:54.713Z,50.61
2022-08-05T17:21:21.275Z,49.88
2022-08-05T17:24:05.810Z,51.48
2022-08-05T17:26:36.994Z,50.77
2022-08-05T17:29:09.918Z,51.37
2022-08-05T17:31:57.321Z,50.26
2022-08-05T17:34:30.156Z,47.69
2022-08-05T17:36:59.822Z,51.09
2022-08-05T17:39:33.932Z,52.89
2022-08-05T17:42:17.808Z,53.91
2022-08-05T17:44:50.392Z,50.81
2022-08-05T17:47:21.950Z,55.36
2022-08-05T17:50:00.399Z,54.91
2022-08-05T17:52:34.143Z,54.60
2022-08-05T17:55:01.376Z,57.76
2022-08-05T17:57:29.688Z,55.23
2022-08-05T18:00:03.266Z,56.56
2022-08-05T18:02:31.295Z,57.97
2022-08-05T18:04:57.842Z,59.79
2022-08-05T18:07:25.444Z,58.39
2022-08-05T18:10:02.077Z,58.88
2022-08-05T18:12:35.723Z,58.82
2022-08-05T18:15:02.416Z,60.43
2022-08-05T18:17:58.634Z,59.21
2022-08-05T18:20:15.482Z,58.48
2022-08-05T18:22:53.918Z,65.43
2022-08-05T18:25:20.916Z,60.86
2022-08-05T18:27:52.604Z,63.18
2022-08-05T18:30:19.483Z,60.77
2022-08-05T18:32:53.089Z,62.07
2022-08-05T18:35:49.649Z,64.43
2022-08-05T18:38:13.347Z,66.88
2022-08-05T18:41:55.218Z,64.30
2022-08-05T18:43:31.421Z,67.14
2022-08-05T18:45:58.703Z,67.70
2022-08-05T18:48:30.885Z,67.08
2022-08-05T18:52:04.543Z,67.28
2022-08-05T18:54:03.958Z,68.63
2022-08-05T18:56:30.525Z,69.28
2022-08-05T18:59:01.167Z,69.16
2022-08-05T19:01:33.205Z,69.34
2022-08-05T19:04:00.035Z,73.37
2022-08-05T19:06:34.377Z,73.57
2022-08-05T19:09:11.165Z,72.78
2022-08-05T19:12:00.945Z,73.67
2022-08-05T19:14:44.602Z,71.93
2022-08-05T19:17:12.952Z,73.08
2022-08-05T19:19:46.411Z,73.81
2022-08-05T19:22:17.095Z,76.15
2022-08-05T19:24:55.828Z,76.48
2022-08-05T19:27:23.651Z,76.66
2022-08-05T19:29:51.819Z,76.86
2022-08-05T19:32:18.511Z,76.75
2022-08-05T19:34:54.710Z,75.55
2022-08-05T19:37:21.878Z,76.86
2022-08-05T19:39:58.076Z,79.27
2022-08-05T19:42:35.888Z,79.40
2022-08-05T19:45:02.689Z,80.81
2022-08-05T19:47:32.892Z,79.33
2022-08-05T19:50:01.078Z,80.62
2022-08-05T19:52:30.925Z,78.08
2022-08-05T19:55:00.609Z,78.33
2022-08-05T19:57:49.338Z,76.92
2022-08-05T20:00:20.841Z,75.34
2022-08-05T20:02:47.469Z,77.03
2022-08-05T20:05:16.468Z,77.79
2022-08-05T20:07:55.046Z,78.95
2022-08-05T20:10:25.106Z,80.26
2022-08-05T20:12:51.805Z,80.74
2022-08-05T20:15:23.288Z,81.92
2022-08-05T20:18:10.457Z,81.91
2022-08-05T20:20:55.352Z,81.82
2022-08-05T20:23:23.707Z,81.57
2022-08-05T20:26:07.691Z,79.06
2022-08-05T20:28:34.222Z,79.15
2022-08-05T20:31:03.479Z,78.84
2022-08-05T20:33:33.064Z,78.90
2022-08-05T20:35:59.800Z,79.33
2022-08-05T20:38:27.714Z,79.33
2022-08-05T20:40:56.506Z,80.40
2022-08-05T20:43:57.544Z,80.42
2022-08-05T20:46:10.329Z,80.85
2022-08-05T20:48:44.789Z,81.55
2022-08-05T20:51:16.810Z,82.55
2022-08-05T20:53:43.268Z,80.27
2022-08-05T20:56:28.037Z,80.02
2022-08-05T20:58:56.791Z,80.51
2022-08-05T21:01:38.352Z,81.29
2022-08-05T21:04:07.241Z,82.66
2022-08-05T21:06:36.844Z,82.67
2022-08-05T21:09:05.600Z,81.85
2022-08-05T21:12:09.534Z,82.95
2022-08-05T21:14:20.076Z,83.40
2022-08-05T21:16:47.080Z,84.34
2022-08-05T21:19:13.599Z,84.13
2022-08-05T21:21:50.551Z,84.48
2022-08-05T21:24:19.513Z,85.04
2022-08-05T21:26:57.992Z,84.86
2022-08-05T21:29:32.015Z,83.10
2022-08-05T21:31:59.358Z,82.86
2022-08-05T21:34:25.838Z,83.79
2022-08-05T21:36:54.870Z,84.71
2022-08-05T21:39:26.733Z,84.60
2022-08-05T21:42:01.266Z,85.39
2022-08-05T21:44:29.177Z,85.68
2022-08-05T21:46:58.057Z,86.84
2022-08-05T21:49:48.553Z,87.63
2022-08-05T21:52:23.030Z,86.97
2022-08-05T21:54:56.388Z,88.43
2022-08-05T21:57:31.414Z,88.73
2022-08-05T22:00:10.874Z,89.40
2022-08-05T22:02:38.463Z,88.41
2022-08-05T22:05:06.010Z,84.49
2022-08-05T22:07:40.228Z,82.83
2022-08-05T22:10:26.628Z,83.54
2022-08-05T22:12:57.364Z,85.38
2022-08-05T22:16:00.990Z,85.21
2022-08-05T22:18:11.124Z,85.23
2022-08-05T22:20:38.905Z,85.58
2022-08-05T22:23:24.904Z,85.25
2022-08-05T22:26:29.976Z,85.50
2022-08-05T22:28:56.495Z,85.23
2022-08-05T22:31:22.984Z,85.75
2022-08-05T22:33:55.650Z,82.12
2022-08-05T22:36:24.150Z,82.29
2022-08-05T22:38:51.496Z,83.33
2022-08-05T22:42:05.389Z,84.03
2022-08-05T22:44:08.212Z,85.28
2022-08-05T22:46:39.505Z,86.59
2022-08-05T22:49:23.160Z,85.10
2022-08-05T22:52:04.580Z,86.54
2022-08-05T22:54:35.525Z,87.86
2022-08-05T22:57:02.831Z,88.63
2022-08-05T22:59:43.568Z,89.45
2022-08-05T23:02:17.641Z,88.09
2022-08-05T23:04:51.524Z,87.82
2022-08-05T23:07:19.499Z,88.61
2022-08-05T23:09:57.226Z,87.63
2022-08-05T23:12:28.621Z,86.45
2022-08-05T23:14:55.415Z,86.54
2022-08-05T23:17:35.019Z,86.66
2022-08-05T23:20:10.457Z,87.38
2022-08-05T23:22:47.832Z,87.11
2022-08-05T23:25:54.765Z,85.85
2022-08-05T23:28:07.038Z,86.34
2022-08-05T23:30:40.585Z,86.03
2022-08-05T23:33:19.069Z,87.16
2022-08-05T23:35:52.429Z,88.39
2022-08-05T23:38:22.939Z,86.93
2022-08-05T23:40:50.899Z,87.33
2022-08-05T23:43:25.369Z,88.42
2022-08-05T23:46:20.983Z,89.10
2022-08-05T23:49:00.817Z,88.83
2022-08-05T23:51:54.316Z,87.58
2022-08-05T23:54:26.608Z,87.17
2022-08-05T23:57:04.069Z,87.26
